OPA Logo

At:2018.03.20 1856 UTC
Wind:190° @ 7KT
Viz: 10 mile(s)
Sky: clear
Temp: 51.1 F (10.6 C)
DewP: 30.0 F (-1.1 C)
RH: 44%
Baro: 29.99 in.
ob: KRDM 201856Z 19007KT 10SM CLR 11/M01 A2999 RMK AO2 SLP155 T01061011
Apache-SSL Logo

Valid HTML 4.01!

Central Oregon OPA Chapter

Upcoming Fly Outs



12 Bend, OR - Flying Festival - Bend Airport

Other Fly-Out pages

Oregon Pilots Association Events Calendar

Washington Pilots Association Events

Past Fly Outs

Caldwell, ID and the Kitfox factory February 2002

XMAS Party 2001

Pasco, WA November 2001

Bend Airport Open House 2001

Flyout May 2001 to Flying M Ranch

Flyout April 2001 to Tillamook Air Museum

Web page by: gem@rellim.com